Time;durP1;ratioP1;P1;durP2;ratioP2;P2;SDS_P1;SDS_P2;PMS_P1;PMS_P2;Temp;Humidity;BMP_temperature;BMP_pressure;BME280_temperature;BME280_humidity;BME280_pressure;Samples;Min_cycle;Max_cycle;Signal;HPM_P1;HPM_P2
2023/09/11 00:01:02;;;;;;;9.40;1.70;;;;;;;14.53;49.30;101564.67;107394;1254;112438;-64
2023/09/11 00:03:41;;;;;;;6.00;2.00;;;;;;;14.46;49.37;101561.77;107413;1254;109926;-64
2023/09/11 00:06:10;;;;;;;6.00;2.00;;;;;;;14.39;49.94;101561.31;107362;1254;107083;-64
2023/09/11 00:08:38;;;;;;;7.10;1.80;;;;;;;14.33;49.96;101555.41;107396;1254;99182;-64
2023/09/11 00:11:07;;;;;;;6.80;1.70;;;;;;;14.29;49.97;101557.05;107428;1254;99730;-64
2023/09/11 00:13:35;;;;;;;10.10;1.80;;;;;;;14.25;50.01;101552.81;107424;1257;111640;-64
2023/09/11 00:16:04;;;;;;;6.40;1.50;;;;;;;14.23;50.21;101554.34;107264;1254;109632;-64
2023/09/11 00:18:32;;;;;;;5.10;1.70;;;;;;;14.19;50.24;101555.73;107379;1258;108339;-63
2023/09/11 00:21:01;;;;;;;8.90;2.00;;;;;;;14.16;50.34;101557.61;107410;1258;99237;-63
2023/09/11 00:23:29;;;;;;;2.20;1.60;;;;;;;14.14;50.42;101555.85;107399;1254;99053;-64
2023/09/11 00:25:58;;;;;;;7.60;1.50;;;;;;;14.10;51.06;101557.61;107425;1254;112810;-63
2023/09/11 00:28:26;;;;;;;7.20;1.50;;;;;;;14.04;50.85;101554.61;107405;1254;109392;-63
2023/09/11 00:31:00;;;;;;;9.90;2.00;;;;;;;13.97;50.82;101554.65;107393;1254;107238;-63
2023/09/11 00:33:29;;;;;;;6.10;1.50;;;;;;;13.90;51.15;101554.75;107366;1254;99183;-63
2023/09/11 00:35:57;;;;;;;6.80;1.70;;;;;;;13.86;51.11;101559.09;107424;1258;99165;-63
2023/09/11 00:38:26;;;;;;;7.70;2.40;;;;;;;13.81;51.46;101557.55;107411;1254;113220;-63
2023/09/11 00:40:54;;;;;;;8.80;1.60;;;;;;;13.75;51.68;101555.71;107411;1257;109338;-63
2023/09/11 00:43:22;;;;;;;4.50;1.70;;;;;;;13.71;51.79;101552.67;107240;1260;108146;-63
2023/09/11 00:45:52;;;;;;;5.30;1.60;;;;;;;13.68;52.25;101552.23;107351;1257;99185;-63
2023/09/11 00:48:21;;;;;;;12.80;1.90;;;;;;;13.63;52.70;101551.80;107437;1254;99309;-64
2023/09/11 00:50:51;;;;;;;12.10;2.00;;;;;;;13.60;52.52;101547.72;107396;1254;112369;-64
2023/09/11 00:53:20;;;;;;;9.20;1.90;;;;;;;13.58;52.92;101550.98;107404;1254;109008;-64
2023/09/11 00:55:48;;;;;;;15.30;2.70;;;;;;;13.56;53.08;101551.69;107386;1254;107129;-64
2023/09/11 00:58:17;;;;;;;5.70;2.10;;;;;;;13.52;53.28;101553.68;107342;1254;99213;-63
2023/09/11 01:00:46;;;;;;;5.10;2.10;;;;;;;13.47;53.55;101550.63;107293;1254;99214;-64
2023/09/11 01:03:15;;;;;;;5.30;2.30;;;;;;;13.42;53.89;101552.87;107196;1257;113073;-64
2023/09/11 01:05:45;;;;;;;6.50;1.90;;;;;;;13.38;53.76;101545.15;107241;1257;108855;-63
2023/09/11 01:08:13;;;;;;;4.90;1.90;;;;;;;13.33;53.71;101538.34;107385;1257;108476;-62
2023/09/11 01:10:42;;;;;;;5.80;1.80;;;;;;;13.29;53.61;101539.89;107353;1254;99176;-65
2023/09/11 01:13:11;;;;;;;11.30;1.90;;;;;;;13.26;53.72;101539.29;107383;1254;99187;-62
2023/09/11 01:15:53;;;;;;;7.30;2.30;;;;;;;13.24;54.15;101542.18;107286;1260;113541;-62
2023/09/11 01:18:38;;;;;;;10.00;2.30;;;;;;;13.21;53.99;101546.19;107383;1254;109811;-62
2023/09/11 01:21:46;;;;;;;8.30;1.90;;;;;;;13.18;54.49;101550.30;107385;1254;106879;-63
2023/09/11 01:24:52;;;;;;;10.70;2.20;;;;;;;13.12;54.47;101548.58;107377;1254;99198;-63
2023/09/11 01:27:31;;;;;;;10.80;2.40;;;;;;;13.09;54.70;101548.46;107379;1254;99090;-64
2023/09/11 01:30:00;;;;;;;11.70;2.00;;;;;;;13.06;54.76;101545.10;107294;1254;113535;-63
2023/09/11 01:32:29;;;;;;;16.00;2.50;;;;;;;13.03;55.29;101549.36;107359;1254;109891;-63
2023/09/11 01:34:58;;;;;;;8.00;2.70;;;;;;;13.00;55.48;101546.92;107424;1257;107729;-63
2023/09/11 01:37:27;;;;;;;9.00;2.20;;;;;;;12.96;55.75;101545.88;107397;1255;99288;-62
2023/09/11 01:39:56;;;;;;;10.10;2.70;;;;;;;12.94;55.62;101548.95;107287;1254;99226;-63
2023/09/11 01:42:39;;;;;;;9.60;3.00;;;;;;;12.92;55.85;101548.36;107266;1254;112583;-63
2023/09/11 01:45:09;;;;;;;11.30;2.80;;;;;;;12.90;55.97;101547.09;107407;1254;109158;-63
2023/09/11 01:47:38;;;;;;;13.90;2.30;;;;;;;12.87;55.83;101544.84;107400;1254;106967;-63
2023/09/11 01:50:09;;;;;;;13.00;2.60;;;;;;;12.85;56.07;101546.45;107294;1254;99269;-63
2023/09/11 01:52:39;;;;;;;9.80;2.80;;;;;;;12.81;56.10;101549.42;107418;1254;99726;-63
2023/09/11 01:55:08;;;;;;;8.20;2.70;;;;;;;12.79;56.22;101542.62;107352;1254;112173;-63
2023/09/11 01:57:36;;;;;;;12.10;2.40;;;;;;;12.77;56.61;101547.64;107368;1254;108541;-63
2023/09/11 02:00:11;;;;;;;9.60;2.60;;;;;;;12.75;57.19;101547.11;107256;1254;109330;-63
2023/09/11 02:02:40;;;;;;;9.70;2.70;;;;;;;12.73;57.08;101547.50;107298;1260;99200;-63
2023/09/11 02:05:09;;;;;;;12.10;2.80;;;;;;;12.71;57.36;101548.31;107363;1257;99294;-63
2023/09/11 02:07:38;;;;;;;9.70;2.20;;;;;;;12.73;57.94;101545.86;107365;1254;112794;-63
2023/09/11 02:10:09;;;;;;;15.80;2.40;;;;;;;12.77;57.67;101541.66;107377;1254;109925;-63
2023/09/11 02:12:37;;;;;;;11.30;2.50;;;;;;;12.80;57.77;101545.05;107276;1254;106719;-64
2023/09/11 02:15:06;;;;;;;10.00;2.80;;;;;;;12.83;57.65;101545.00;107237;1254;99260;-64
2023/09/11 02:17:34;;;;;;;6.90;2.40;;;;;;;12.85;57.74;101544.11;107377;1257;99237;-64
2023/09/11 02:20:04;;;;;;;7.50;2.90;;;;;;;12.85;57.74;101545.70;107218;1256;113100;-63
2023/09/11 02:22:32;;;;;;;6.20;2.60;;;;;;;12.84;57.78;101545.27;107371;1257;109861;-62
2023/09/11 02:25:00;;;;;;;14.90;2.90;;;;;;;12.82;58.00;101543.43;107152;1260;108715;-63
2023/09/11 02:27:28;;;;;;;6.10;3.10;;;;;;;12.80;58.11;101542.52;107308;1257;99187;-63
2023/09/11 02:29:57;;;;;;;4.20;2.20;;;;;;;12.78;58.29;101536.36;107348;1257;99789;-64
2023/09/11 02:32:27;;;;;;;14.00;2.40;;;;;;;12.79;58.27;101531.48;107324;1258;113364;-65
2023/09/11 02:34:55;;;;;;;13.30;2.80;;;;;;;12.78;58.52;101532.79;107349;1258;109479;-65
2023/09/11 02:37:24;;;;;;;8.40;2.60;;;;;;;12.78;58.54;101529.52;107233;1257;108546;-64
2023/09/11 02:39:53;;;;;;;8.70;3.00;;;;;;;12.79;58.55;101529.12;107348;1254;99213;-64
2023/09/11 02:42:21;;;;;;;7.40;2.70;;;;;;;12.79;58.60;101524.29;107323;1254;99248;-64
2023/09/11 02:44:50;;;;;;;12.50;2.80;;;;;;;12.77;58.71;101524.77;107233;1257;113231;-64
2023/09/11 02:47:18;;;;;;;7.60;2.30;;;;;;;12.78;58.89;101522.91;107349;1257;109652;-63
2023/09/11 02:49:47;;;;;;;16.10;3.20;;;;;;;12.79;58.89;101519.59;107287;1254;108572;-65
2023/09/11 02:52:15;;;;;;;9.40;2.60;;;;;;;12.79;58.79;101515.08;107332;1254;99606;-64
2023/09/11 02:54:43;;;;;;;7.00;2.80;;;;;;;12.79;58.89;101514.73;107191;1257;98948;-64
2023/09/11 02:57:11;;;;;;;8.10;2.80;;;;;;;12.77;58.80;101520.33;107361;1256;112741;-65
2023/09/11 02:59:39;;;;;;;17.70;2.60;;;;;;;12.74;58.91;101513.54;107162;1257;109421;-64
2023/09/11 03:02:09;;;;;;;11.10;2.70;;;;;;;12.71;59.24;101511.99;107337;1256;108116;-63
2023/09/11 03:04:37;;;;;;;5.50;2.80;;;;;;;12.67;59.43;101515.23;107323;1257;99070;-63
2023/09/11 03:07:06;;;;;;;7.80;2.80;;;;;;;12.63;59.48;101511.25;107420;1257;99063;-63
2023/09/11 03:09:34;;;;;;;8.50;3.50;;;;;;;12.59;59.65;101511.73;107228;1254;113323;-63
2023/09/11 03:12:03;;;;;;;17.00;3.40;;;;;;;12.55;59.67;101513.52;107399;1254;109658;-64
2023/09/11 03:14:31;;;;;;;8.50;3.00;;;;;;;12.51;59.80;101515.83;107184;1256;108473;-63
2023/09/11 03:16:59;;;;;;;14.20;4.00;;;;;;;12.47;59.87;101519.26;107048;1257;99441;-64
2023/09/11 03:19:27;;;;;;;12.10;3.30;;;;;;;12.43;59.94;101519.04;107139;1260;99729;-63
2023/09/11 03:21:56;;;;;;;10.20;2.80;;;;;;;12.42;60.09;101520.26;107216;1257;115176;-63
2023/09/11 03:24:24;;;;;;;15.10;3.50;;;;;;;12.38;60.29;101518.73;107277;1257;109286;-64
2023/09/11 03:26:52;;;;;;;10.20;3.20;;;;;;;12.34;60.30;101517.23;107255;1256;108530;-63
2023/09/11 03:29:21;;;;;;;13.80;3.70;;;;;;;12.32;60.26;101518.46;107255;1256;99208;-63
2023/09/11 03:31:49;;;;;;;16.50;3.30;;;;;;;12.31;60.40;101521.70;107173;1257;99192;-63
2023/09/11 03:34:17;;;;;;;13.60;3.00;;;;;;;12.30;60.46;101523.21;107353;1256;114110;-63
2023/09/11 03:36:46;;;;;;;10.10;2.80;;;;;;;12.30;60.49;101524.44;107181;1260;109678;-62
2023/09/11 03:39:15;;;;;;;12.60;3.60;;;;;;;12.31;60.74;101526.92;107159;1254;107815;-65
2023/09/11 03:41:43;;;;;;;15.50;3.90;;;;;;;12.31;60.74;101529.00;107383;1254;99372;-64
2023/09/11 03:44:12;;;;;;;5.10;3.20;;;;;;;12.31;60.83;101528.09;107228;1259;99221;-64
2023/09/11 03:46:40;;;;;;;11.00;3.00;;;;;;;12.31;60.82;101532.77;107271;1257;112870;-64
2023/09/11 03:49:09;;;;;;;10.50;3.60;;;;;;;12.31;60.81;101532.09;107278;1257;109381;-64
2023/09/11 03:51:38;;;;;;;13.40;3.50;;;;;;;12.31;61.16;101529.56;107311;1260;109020;-63
2023/09/11 03:54:10;;;;;;;10.10;3.30;;;;;;;12.31;61.24;101527.92;107316;1256;99189;-64
2023/09/11 03:56:38;;;;;;;8.50;3.20;;;;;;;12.32;61.33;101527.73;107214;1256;99180;-64
2023/09/11 03:59:08;;;;;;;12.00;3.30;;;;;;;12.32;61.36;101528.06;107343;1257;114756;-64
2023/09/11 04:01:36;;;;;;;7.70;2.90;;;;;;;12.31;61.46;101525.95;107192;1260;110354;-63
2023/09/11 04:04:05;;;;;;;9.70;3.30;;;;;;;12.32;61.50;101518.90;107276;1256;108643;-64
2023/09/11 04:06:36;;;;;;;13.70;3.40;;;;;;;12.33;61.58;101522.16;107197;1257;99217;-63
2023/09/11 04:09:05;;;;;;;11.70;3.20;;;;;;;12.35;61.62;101527.80;107200;1256;99260;-64
2023/09/11 04:11:34;;;;;;;9.70;3.20;;;;;;;12.38;61.77;101527.72;107361;1257;113349;-63
2023/09/11 04:14:02;;;;;;;8.60;3.00;;;;;;;12.41;61.90;101526.23;107180;1257;109896;-64
2023/09/11 04:16:30;;;;;;;10.70;3.70;;;;;;;12.43;61.96;101522.48;107158;1257;107989;-63
2023/09/11 04:18:59;;;;;;;9.40;3.20;;;;;;;12.43;62.14;101520.65;107338;1257;99233;-64
2023/09/11 04:21:27;;;;;;;5.70;3.20;;;;;;;12.42;62.13;101522.17;107210;1257;99068;-64
2023/09/11 04:23:58;;;;;;;9.10;3.00;;;;;;;12.44;62.07;101518.08;107195;1257;113486;-63
2023/09/11 04:26:26;;;;;;;6.70;3.40;;;;;;;12.47;62.06;101518.67;107245;1257;109010;-64
2023/09/11 04:28:55;;;;;;;21.10;3.50;;;;;;;12.49;62.13;101518.30;107152;1256;108320;-63
2023/09/11 04:31:23;;;;;;;9.50;3.80;;;;;;;12.52;62.25;101519.48;107170;1256;99086;-63
2023/09/11 04:33:52;;;;;;;9.40;3.20;;;;;;;12.56;62.27;101514.35;107408;1254;99077;-64
2023/09/11 04:36:20;;;;;;;13.70;3.20;;;;;;;12.59;62.34;101515.14;107387;1256;112098;-63
2023/09/11 04:38:48;;;;;;;14.00;3.70;;;;;;;12.62;62.46;101513.11;107334;1254;108751;-62
2023/09/11 04:41:17;;;;;;;10.10;4.00;;;;;;;12.64;62.40;101511.35;107309;1254;108971;-63
2023/09/11 04:43:46;;;;;;;22.40;3.40;;;;;;;12.66;62.53;101510.96;107324;1256;99169;-64
2023/09/11 04:46:16;;;;;;;12.90;2.60;;;;;;;12.69;62.60;101509.80;107341;1256;99178;-65
2023/09/11 04:48:45;;;;;;;9.60;3.20;;;;;;;12.74;62.64;101516.21;107185;1254;112676;-63
2023/09/11 04:51:13;;;;;;;20.70;4.30;;;;;;;12.79;62.63;101517.77;107318;1254;111069;-63
2023/09/11 04:53:42;;;;;;;16.20;3.80;;;;;;;12.85;62.59;101520.15;107235;1258;106829;-64
2023/09/11 04:56:11;;;;;;;16.50;3.60;;;;;;;12.89;62.46;101518.70;107381;1256;99223;-62
2023/09/11 04:58:39;;;;;;;12.90;3.90;;;;;;;12.95;62.52;101514.92;107141;1257;99240;-62
2023/09/11 05:01:08;;;;;;;13.50;3.70;;;;;;;13.01;62.54;101513.02;107305;1255;113017;-63
2023/09/11 05:03:37;;;;;;;22.10;4.40;;;;;;;13.06;62.45;101512.05;107278;1257;109829;-63
2023/09/11 05:06:08;;;;;;;17.00;4.00;;;;;;;13.12;62.45;101505.02;107254;1257;108845;-63
2023/09/11 05:08:36;;;;;;;19.80;4.40;;;;;;;13.19;62.49;101503.33;107381;1254;99195;-65
2023/09/11 05:11:25;;;;;;;17.90;5.00;;;;;;;13.27;62.54;101498.33;107419;1254;99219;-64
2023/09/11 05:13:54;;;;;;;26.60;4.50;;;;;;;13.33;62.27;101494.71;107279;1257;112943;-64
2023/09/11 05:16:22;;;;;;;19.10;4.50;;;;;;;13.40;62.23;101498.31;107281;1256;108537;-63
2023/09/11 05:18:51;;;;;;;42.20;4.70;;;;;;;13.44;62.01;101499.70;107393;1254;108150;-62
2023/09/11 05:21:19;;;;;;;27.90;5.20;;;;;;;13.50;61.96;101495.21;107381;1254;99203;-63
2023/09/11 05:23:48;;;;;;;21.90;4.60;;;;;;;13.55;61.79;101497.28;107376;1254;99125;-64
2023/09/11 05:26:17;;;;;;;14.00;4.00;;;;;;;13.60;61.72;101494.73;107424;1257;112320;-64
2023/09/11 05:28:45;;;;;;;40.50;5.90;;;;;;;13.64;61.48;101497.23;107405;1254;109840;-63
2023/09/11 05:31:13;;;;;;;93.90;7.30;;;;;;;13.68;61.21;101497.25;107353;1254;106905;-63
2023/09/11 05:33:42;;;;;;;168.20;10.90;;;;;;;13.73;61.14;101500.88;107373;1257;99192;-64
2023/09/11 05:36:11;;;;;;;52.20;6.80;;;;;;;13.78;61.00;101500.46;107396;1257;99262;-64
2023/09/11 05:38:40;;;;;;;36.60;6.40;;;;;;;13.83;60.91;101500.20;107390;1254;113500;-63
2023/09/11 05:41:09;;;;;;;34.20;5.40;;;;;;;13.88;60.95;101490.37;107412;1254;108380;-64
2023/09/11 05:43:39;;;;;;;31.70;5.70;;;;;;;13.93;60.64;101494.42;107376;1254;108330;-64
2023/09/11 05:46:08;;;;;;;26.90;6.00;;;;;;;13.99;60.55;101493.52;107383;1257;99300;-63
2023/09/11 05:48:36;;;;;;;31.60;5.60;;;;;;;14.04;60.48;101493.60;107395;1254;99704;-63
2023/09/11 05:51:05;;;;;;;18.60;4.30;;;;;;;14.09;60.34;101492.77;107424;1254;112752;-64
2023/09/11 05:53:34;;;;;;;16.20;5.80;;;;;;;14.17;60.29;101493.73;107415;1254;109679;-66
2023/09/11 05:56:03;;;;;;;26.00;4.90;;;;;;;14.23;60.38;101494.92;107377;1254;108629;-63
2023/09/11 05:58:31;;;;;;;27.80;6.20;;;;;;;14.29;60.23;101495.44;107375;1254;99172;-63
2023/09/11 06:00:59;;;;;;;13.60;4.10;;;;;;;14.38;60.26;101499.86;107394;1254;99086;-64
2023/09/11 06:03:27;;;;;;;19.20;5.20;;;;;;;14.47;60.10;101500.16;107416;1254;112742;-66
2023/09/11 06:05:56;;;;;;;22.50;5.50;;;;;;;14.56;59.92;101500.04;107405;1254;109688;-64
2023/09/11 06:08:25;;;;;;;21.80;4.50;;;;;;;14.66;59.88;101503.45;107385;1257;108461;-62
2023/09/11 06:10:54;;;;;;;25.90;6.00;;;;;;;14.77;59.89;101502.26;107365;1254;99169;-64
2023/09/11 06:13:22;;;;;;;31.20;5.80;;;;;;;14.87;59.66;101503.63;107422;1254;99069;-64
2023/09/11 06:15:50;;;;;;;19.50;5.00;;;;;;;14.97;59.51;101507.02;107418;1254;112719;-63
2023/09/11 06:18:18;;;;;;;24.80;4.80;;;;;;;15.10;59.16;101513.37;107388;1254;109443;-63
2023/09/11 06:20:49;;;;;;;22.30;4.80;;;;;;;15.19;58.88;101512.34;107384;1257;107844;-63
2023/09/11 06:23:18;;;;;;;26.10;4.70;;;;;;;15.28;58.81;101514.73;107474;1254;99171;-64
2023/09/11 06:25:46;;;;;;;14.50;3.70;;;;;;;15.37;58.53;101514.91;107508;1254;99100;-63
2023/09/11 06:28:14;;;;;;;13.60;4.00;;;;;;;15.47;57.96;101511.92;107484;1254;113289;-63
2023/09/11 06:30:43;;;;;;;10.70;3.80;;;;;;;15.58;57.46;101514.32;107468;1254;109622;-63
2023/09/11 06:33:11;;;;;;;8.10;3.50;;;;;;;15.67;57.34;101511.44;107455;1254;108657;-63
2023/09/11 06:35:39;;;;;;;26.30;4.40;;;;;;;15.77;57.32;101507.05;107464;1254;99274;-63
2023/09/11 06:38:08;;;;;;;45.70;5.70;;;;;;;15.88;57.18;101507.51;107469;1254;99080;-64
2023/09/11 06:40:37;;;;;;;31.00;4.90;;;;;;;15.98;57.33;101511.58;107482;1257;113121;-63
2023/09/11 06:43:06;;;;;;;11.20;3.80;;;;;;;16.08;57.28;101514.32;107489;1254;109457;-63
2023/09/11 06:45:35;;;;;;;17.70;4.20;;;;;;;16.18;56.59;101515.14;107384;1254;108894;-64
2023/09/11 06:48:05;;;;;;;16.20;4.50;;;;;;;16.28;56.08;101515.19;107377;1254;99081;-64
2023/09/11 06:50:33;;;;;;;23.90;3.50;;;;;;;16.38;55.89;101515.48;107433;1257;99343;-64
2023/09/11 06:53:02;;;;;;;10.20;3.70;;;;;;;16.48;55.82;101513.77;107375;1254;114036;-64
2023/09/11 06:55:30;;;;;;;15.30;3.50;;;;;;;16.59;55.22;101510.46;107394;1254;109019;-62
2023/09/11 06:58:00;;;;;;;13.90;3.40;;;;;;;16.71;54.88;101508.29;107437;1254;108429;-63
2023/09/11 07:00:29;;;;;;;13.60;3.00;;;;;;;16.82;54.33;101505.36;107420;1254;99192;-64
2023/09/11 07:02:57;;;;;;;10.10;3.80;;;;;;;16.92;53.74;101506.94;107396;1254;99163;-63
2023/09/11 07:05:27;;;;;;;7.10;2.80;;;;;;;17.01;53.56;101506.33;107412;1257;113286;-64
2023/09/11 07:07:56;;;;;;;15.20;3.60;;;;;;;17.11;53.42;101505.70;107345;1257;109217;-63
2023/09/11 07:10:25;;;;;;;13.70;3.30;;;;;;;17.21;53.42;101506.13;107353;1257;108077;-64
2023/09/11 07:13:08;;;;;;;;;;;;;;;17.32;53.14;101504.90;107357;1255;99221;-64
2023/09/11 07:15:37;;;;;;;13.50;3.60;;;;;;;17.45;52.48;101505.05;107382;1257;99871;-64
2023/09/11 07:18:05;;;;;;;10.80;3.60;;;;;;;17.58;52.48;101499.48;107322;1257;112417;-64
2023/09/11 07:20:34;;;;;;;19.80;3.70;;;;;;;17.71;51.94;101501.69;107305;1257;109994;-62
2023/09/11 07:23:02;;;;;;;13.70;3.70;;;;;;;17.84;51.73;101503.01;107375;1257;107731;-65
2023/09/11 07:25:31;;;;;;;10.40;4.10;;;;;;;17.99;51.03;101502.69;107266;1258;99259;-65
2023/09/11 07:27:59;;;;;;;9.00;4.00;;;;;;;18.13;50.61;101499.73;107270;1257;99195;-62
2023/09/11 07:30:27;;;;;;;25.10;4.10;;;;;;;18.27;50.45;101496.73;107329;1256;112928;-62
2023/09/11 07:32:56;;;;;;;17.30;4.50;;;;;;;18.45;49.36;101493.70;107314;1254;108779;-64
2023/09/11 07:35:24;;;;;;;14.10;4.20;;;;;;;18.63;49.51;101492.95;107295;1257;107154;-64
2023/09/11 07:37:53;;;;;;;13.10;3.70;;;;;;;18.83;49.41;101491.52;107251;1254;99470;-65
2023/09/11 07:40:23;;;;;;;9.30;3.50;;;;;;;19.05;48.96;101491.27;107367;1254;99256;-64
2023/09/11 07:42:52;;;;;;;18.70;3.50;;;;;;;19.26;48.86;101491.43;107412;1254;112642;-64
2023/09/11 07:45:21;;;;;;;13.10;3.40;;;;;;;19.48;48.16;101495.30;107290;1257;109728;-64
2023/09/11 07:47:51;;;;;;;11.70;3.50;;;;;;;19.70;47.02;101494.20;107283;1257;108307;-64
2023/09/11 07:50:19;;;;;;;16.10;4.00;;;;;;;19.91;47.19;101492.11;107270;1255;99203;-64
2023/09/11 07:52:49;;;;;;;11.90;3.10;;;;;;;20.12;46.89;101490.04;107291;1256;99829;-64
2023/09/11 07:55:17;;;;;;;11.60;3.30;;;;;;;20.33;46.35;101489.19;107237;1257;112275;-64
2023/09/11 07:57:47;;;;;;;20.00;3.60;;;;;;;20.53;45.46;101483.96;107116;1260;110870;-64
2023/09/11 08:00:16;;;;;;;14.30;3.10;;;;;;;20.69;44.87;101481.70;107295;1256;107815;-64
2023/09/11 08:02:44;;;;;;;17.10;3.60;;;;;;;20.79;44.36;101473.90;107303;1257;99182;-64
2023/09/11 08:05:13;;;;;;;14.00;3.80;;;;;;;20.88;44.48;101471.73;107334;1256;99885;-64
2023/09/11 08:07:41;;;;;;;16.80;3.50;;;;;;;21.03;44.07;101471.30;107307;1257;113889;-63
2023/09/11 08:10:09;;;;;;;23.50;4.00;;;;;;;21.14;43.78;101465.44;107344;1254;110473;-62
2023/09/11 08:12:37;;;;;;;14.40;3.70;;;;;;;21.24;43.88;101467.48;107326;1254;108032;-64
2023/09/11 08:15:07;;;;;;;7.70;3.20;;;;;;;21.37;43.22;101470.42;107309;1259;99342;-64
2023/09/11 08:17:35;;;;;;;10.00;3.10;;;;;;;21.54;43.13;101466.77;107326;1256;99163;-64
2023/09/11 08:20:04;;;;;;;8.00;3.20;;;;;;;21.76;42.07;101466.05;107318;1257;113891;-64
2023/09/11 08:22:32;;;;;;;14.20;4.20;;;;;;;21.95;42.41;101464.70;107335;1257;108295;-64
2023/09/11 08:25:00;;;;;;;16.30;3.90;;;;;;;22.16;41.92;101461.53;107321;1259;107501;-64
2023/09/11 08:27:29;;;;;;;9.00;3.60;;;;;;;22.41;42.04;101458.78;107299;1258;99231;-63
2023/09/11 08:29:57;;;;;;;9.70;2.70;;;;;;;22.65;41.65;101457.74;107306;1254;99729;-64
2023/09/11 08:32:26;;;;;;;16.90;3.10;;;;;;;22.88;40.09;101451.61;107291;1256;113381;-64
2023/09/11 08:34:54;;;;;;;22.60;2.90;;;;;;;23.06;39.64;101453.83;107279;1257;110702;-64
2023/09/11 08:37:24;;;;;;;10.00;4.20;;;;;;;23.20;39.57;101452.54;107344;1257;108281;-64
2023/09/11 08:39:53;;;;;;;10.30;2.40;;;;;;;23.35;39.76;101453.91;107275;1256;99156;-64
2023/09/11 08:42:24;;;;;;;6.30;2.50;;;;;;;23.50;38.95;101452.02;107332;1258;99198;-64
2023/09/11 08:44:53;;;;;;;13.20;2.50;;;;;;;23.65;38.93;101447.17;107271;1257;112707;-64
2023/09/11 08:47:29;;;;;;;9.60;2.60;;;;;;;23.83;38.54;101443.62;107162;1258;109808;-64
2023/09/11 08:50:05;;;;;;;12.10;2.60;;;;;;;24.00;37.73;101443.70;107344;1256;108416;-64
2023/09/11 08:52:35;;;;;;;18.30;2.80;;;;;;;24.19;37.63;101438.36;107051;1257;99205;-64
2023/09/11 08:55:09;;;;;;;16.60;3.20;;;;;;;24.43;37.23;101433.33;107373;1256;99070;-65
2023/09/11 08:57:39;;;;;;;9.80;2.10;;;;;;;24.70;36.88;101433.10;107354;1254;112903;-64
2023/09/11 09:00:09;;;;;;;12.60;1.90;;;;;;;24.92;35.09;101427.42;107345;1256;108356;-65
2023/09/11 09:02:38;;;;;;;7.70;1.80;;;;;;;25.11;34.54;101431.39;107287;1256;108107;-65
2023/09/11 09:05:08;;;;;;;7.90;2.20;;;;;;;25.30;33.58;101424.33;107281;1257;100065;-64
2023/09/11 09:07:38;;;;;;;13.00;2.60;;;;;;;25.55;32.84;101423.16;107367;1256;99072;-64
2023/09/11 09:10:08;;;;;;;13.50;2.10;;;;;;;25.81;33.04;101414.53;107339;1257;112473;-63
2023/09/11 09:12:37;;;;;;;11.50;1.90;;;;;;;26.11;32.38;101412.13;107351;1257;109473;-64
2023/09/11 09:15:06;;;;;;;9.00;1.80;;;;;;;26.45;31.91;101414.17;107141;1258;108540;-64
2023/09/11 09:17:35;;;;;;;6.00;2.00;;;;;;;26.81;30.03;101413.38;107202;1257;99269;-64
2023/09/11 09:20:04;;;;;;;6.10;1.90;;;;;;;27.13;29.00;101408.48;107216;1257;99223;-64
2023/09/11 09:22:32;;;;;;;7.80;1.90;;;;;;;27.56;29.15;101405.64;107229;1256;113145;-66
2023/09/11 09:25:01;;;;;;;8.10;1.90;;;;;;;28.21;28.77;101405.95;107267;1257;109792;-67
2023/09/11 09:27:35;;;;;;;8.70;2.00;;;;;;;28.98;27.89;101405.95;107193;1256;108271;-65
2023/09/11 09:30:17;;;;;;;9.40;1.50;;;;;;;29.76;27.55;101399.67;107251;1257;99267;-65
2023/09/11 09:32:48;;;;;;;8.50;1.30;;;;;;;30.60;24.97;101397.48;107323;1257;99070;-66
2023/09/11 09:35:20;;;;;;;5.60;1.50;;;;;;;31.11;23.78;101393.63;107284;1257;111790;-64
2023/09/11 09:37:53;;;;;;;4.50;1.50;;;;;;;31.54;22.80;101394.93;107306;1256;108794;-65
2023/09/11 09:40:33;;;;;;;8.70;1.60;;;;;;;31.95;22.72;101389.27;107288;1256;107777;-65
2023/09/11 09:43:04;;;;;;;5.60;1.80;;;;;;;32.46;22.54;101389.65;107258;1257;99076;-65
2023/09/11 09:45:39;;;;;;;3.50;1.20;;;;;;;32.97;22.28;101385.59;107299;1257;99130;-65
2023/09/11 09:48:10;;;;;;;3.40;1.10;;;;;;;33.43;21.57;101375.04;107275;1259;113297;-64
2023/09/11 09:50:57;;;;;;;6.10;1.30;;;;;;;33.74;19.89;101375.02;107273;1258;109325;-64
2023/09/11 09:53:26;;;;;;;4.20;1.70;;;;;;;33.71;20.19;101372.78;107205;1254;108220;-63
2023/09/11 09:55:56;;;;;;;6.40;1.30;;;;;;;34.12;20.00;101372.63;106990;1254;409143;-66
2023/09/11 09:58:29;;;;;;;4.70;1.50;;;;;;;34.26;18.58;101369.25;107326;1254;99210;-65
2023/09/11 10:01:00;;;;;;;3.70;1.50;;;;;;;34.24;18.87;101364.67;107377;1257;112423;-66
2023/09/11 10:03:38;;;;;;;6.50;1.20;;;;;;;34.65;19.54;101361.23;107274;1256;110064;-64
2023/09/11 10:06:27;;;;;;;13.70;1.60;;;;;;;35.37;18.87;101360.45;107349;1258;107107;-66
2023/09/11 10:09:12;;;;;;;5.50;1.40;;;;;;;35.92;17.94;101359.65;107304;1257;99291;-65
2023/09/11 10:11:42;;;;;;;2.90;1.40;;;;;;;36.13;17.09;101364.06;107341;1254;99156;-63
2023/09/11 10:14:11;;;;;;;3.20;1.10;;;;;;;36.07;16.94;101361.59;107355;1254;112955;-66
2023/09/11 10:16:40;;;;;;;18.40;1.80;;;;;;;36.04;16.77;101352.89;107298;1254;108284;-64
2023/09/11 10:19:09;;;;;;;12.40;1.80;;;;;;;36.36;17.87;101348.87;107311;1257;107236;-64
2023/09/11 10:21:39;;;;;;;3.90;1.30;;;;;;;36.95;17.24;101347.42;107307;1254;99308;-64
2023/09/11 10:24:10;;;;;;;8.40;1.70;;;;;;;37.56;16.85;101343.23;107440;1254;99090;-66
2023/09/11 10:26:43;;;;;;;2.60;1.10;;;;;;;38.06;16.11;101345.33;107325;1254;112873;-63
2023/09/11 10:29:29;;;;;;;7.20;0.90;;;;;;;38.32;15.81;101338.30;107280;1257;110146;-65
2023/09/11 10:32:15;;;;;;;6.30;1.50;;;;;;;38.38;15.19;101330.21;107338;1257;108709;-64
2023/09/11 10:34:46;;;;;;;2.10;1.20;;;;;;;38.88;15.58;101329.62;107351;1254;99166;-64
2023/09/11 10:37:18;;;;;;;5.80;1.40;;;;;;;39.11;14.27;101332.48;107396;1254;99796;-64
2023/09/11 10:39:50;;;;;;;4.40;1.30;;;;;;;39.16;14.16;101323.38;107371;1254;112982;-64
2023/09/11 10:42:19;;;;;;;4.30;1.00;;;;;;;39.35;14.45;101323.38;107433;1253;108551;-63
2023/09/11 10:44:47;;;;;;;8.40;1.40;;;;;;;39.38;13.75;101322.30;107267;1254;107234;-64
2023/09/11 10:47:16;;;;;;;11.40;1.40;;;;;;;39.19;13.74;101318.02;107282;1257;99341;-64
2023/09/11 10:49:49;;;;;;;4.60;2.10;;;;;;;39.24;13.87;101318.96;107351;1254;99096;-64
2023/09/11 10:52:17;;;;;;;4.90;1.10;;;;;;;39.47;14.12;101308.96;107357;1253;112749;-64
2023/09/11 10:54:47;;;;;;;6.50;1.30;;;;;;;39.72;14.09;101309.73;107294;1254;109157;-64
2023/09/11 10:57:16;;;;;;;10.00;1.60;;;;;;;39.97;13.42;101306.55;107307;1253;107709;-63
2023/09/11 10:59:44;;;;;;;6.80;1.50;;;;;;;40.01;13.23;101302.17;107319;1254;99220;-63
2023/09/11 11:02:13;;;;;;;9.50;1.60;;;;;;;40.08;13.05;101303.33;107390;1254;99245;-63
2023/09/11 11:04:42;;;;;;;3.30;1.30;;;;;;;40.22;13.18;101300.35;107295;1257;113226;-63
2023/09/11 11:07:12;;;;;;;3.20;1.10;;;;;;;40.23;12.57;101292.99;107346;1257;110507;-64
2023/09/11 11:09:41;;;;;;;3.10;1.10;;;;;;;40.31;12.94;101292.77;107260;1254;107559;-64
2023/09/11 11:12:15;;;;;;;3.50;1.50;;;;;;;40.54;12.72;101288.87;107337;1254;99198;-64
2023/09/11 11:15:22;;;;;;;3.80;1.30;;;;;;;40.82;12.90;101290.70;107305;1257;99341;-64
2023/09/11 11:18:11;;;;;;;6.50;1.40;;;;;;;40.92;13.14;101283.42;107300;1254;113668;-64
2023/09/11 11:21:08;;;;;;;2.80;1.20;;;;;;;41.02;12.57;101280.13;107345;1257;110255;-64
2023/09/11 11:24:00;;;;;;;9.40;1.80;;;;;;;40.73;11.88;101279.16;107251;1258;109038;-64